Time;durP1;ratioP1;P1;durP2;ratioP2;P2;SDS_P1;SDS_P2;PMS_P1;PMS_P2;Temp;Humidity;BMP_temperature;BMP_pressure;BME280_temperature;BME280_humidity;BME280_pressure;Samples;Min_cycle;Max_cycle;Signal;HPM_P1;HPM_P2
2022/08/09 00:01:22;;;;;;;1.10;1.00;;;21.10;53.80;;;;;;4962629;28;20030;-78
2022/08/09 00:03:47;;;;;;;1.95;1.30;;;21.00;53.90;;;;;;4911689;28;20283;-78
2022/08/09 00:06:13;;;;;;;2.20;1.20;;;21.00;53.90;;;;;;4958939;28;20030;-78
2022/08/09 00:08:39;;;;;;;1.50;1.00;;;21.00;54.10;;;;;;4963051;28;20023;-78
2022/08/09 00:11:05;;;;;;;1.20;1.10;;;20.90;54.30;;;;;;4934241;28;20742;-78
2022/08/09 00:13:31;;;;;;;1.40;1.20;;;20.90;54.40;;;;;;4955708;28;20025;-78
2022/08/09 00:15:56;;;;;;;1.70;1.20;;;20.90;55.30;;;;;;4963622;28;20085;-78
2022/08/09 00:18:22;;;;;;;2.63;1.40;;;20.80;54.80;;;;;;4921251;28;20170;-78
2022/08/09 00:20:48;;;;;;;1.92;1.20;;;20.80;54.80;;;;;;4937053;28;20057;-78
2022/08/09 00:23:14;;;;;;;1.90;1.40;;;20.80;55.00;;;;;;4953223;28;20166;-78
2022/08/09 00:25:39;;;;;;;2.35;1.17;;;20.80;55.20;;;;;;4970209;28;20039;-78
2022/08/09 00:28:05;;;;;;;1.50;1.30;;;20.70;55.30;;;;;;4947642;28;20312;-78
2022/08/09 00:30:32;;;;;;;1.98;1.27;;;20.70;55.50;;;;;;4966565;28;20031;-78
2022/08/09 00:32:58;;;;;;;1.37;1.20;;;20.70;55.70;;;;;;4944923;28;20038;-77
2022/08/09 00:35:24;;;;;;;2.25;1.23;;;20.70;55.90;;;;;;4935372;28;20462;-78
2022/08/09 00:37:50;;;;;;;1.27;1.13;;;20.60;56.00;;;;;;4956216;28;20022;-78
2022/08/09 00:40:15;;;;;;;2.53;1.37;;;20.60;56.00;;;;;;4963988;28;20054;-78
2022/08/09 00:42:41;;;;;;;1.45;1.20;;;20.60;56.20;;;;;;4937268;28;20369;-78
2022/08/09 00:45:08;;;;;;;1.97;1.20;;;20.60;56.40;;;;;;4958629;28;20680;-78
2022/08/09 00:47:34;;;;;;;1.95;1.25;;;20.50;56.60;;;;;;4970900;28;20030;-78
2022/08/09 00:50:00;;;;;;;1.73;1.50;;;20.50;56.50;;;;;;4940573;28;20038;-78
2022/08/09 00:52:26;;;;;;;2.03;1.40;;;20.50;56.70;;;;;;4957891;28;20027;-78
2022/08/09 00:54:52;;;;;;;1.30;1.20;;;20.40;56.90;;;;;;4962034;28;20034;-78
2022/08/09 00:57:21;;;;;;;2.03;1.23;;;20.40;57.00;;;;;;4958682;28;20492;-78
2022/08/09 00:59:47;;;;;;;2.10;1.50;;;20.40;57.60;;;;;;4949186;28;20507;-78
2022/08/09 01:02:19;;;;;;;2.00;1.20;;;20.40;57.20;;;;;;4952011;28;20043;-78
2022/08/09 01:05:04;;;;;;;3.30;1.45;;;20.30;58.00;;;;;;4951340;28;20480;-78
2022/08/09 01:07:32;;;;;;;1.73;1.35;;;20.30;57.50;;;;;;4909898;28;20393;-78
2022/08/09 01:10:03;;;;;;;1.67;1.20;;;20.20;57.30;;;;;;4967020;28;20396;-78
2022/08/09 01:13:03;;;;;;;2.00;1.50;;;20.20;58.10;;;;;;4963069;28;20395;-78
2022/08/09 01:15:37;;;;;;;1.50;1.40;;;20.20;59.40;;;;;;4944131;28;20114;-78
2022/08/09 01:18:08;;;;;;;2.17;1.65;;;20.10;58.70;;;;;;4952206;28;20771;-77
2022/08/09 01:20:42;;;;;;;2.28;1.30;;;20.10;58.50;;;;;;4931120;28;20483;-78
2022/08/09 01:23:20;;;;;;;1.75;1.40;;;20.10;59.20;;;;;;4935959;28;20038;-79
2022/08/09 01:25:48;;;;;;;2.17;1.42;;;20.00;58.30;;;;;;4940488;28;20047;-78
2022/08/09 01:28:14;;;;;;;3.07;1.47;;;20.00;59.00;;;;;;4960167;28;20034;-78
2022/08/09 01:30:42;;;;;;;2.30;1.65;;;20.00;58.50;;;;;;4952874;28;20404;-78
2022/08/09 01:33:10;;;;;;;2.42;1.60;;;20.00;58.80;;;;;;4958462;28;20320;-78
2022/08/09 01:35:47;;;;;;;2.28;1.55;;;19.90;58.80;;;;;;4955752;28;20027;-77
2022/08/09 01:38:21;;;;;;;2.27;1.50;;;19.90;59.30;;;;;;4935688;28;20031;-78
2022/08/09 01:40:56;;;;;;;2.22;1.67;;;19.90;59.60;;;;;;4949090;28;20038;-78
2022/08/09 01:43:22;;;;;;;1.90;1.50;;;19.80;59.90;;;;;;4951653;28;20347;-78
2022/08/09 01:45:49;;;;;;;1.95;1.40;;;19.80;59.00;;;;;;4929681;28;20511;-78
2022/08/09 01:48:18;;;;;;;2.08;1.50;;;19.80;59.30;;;;;;4947279;28;20048;-78
2022/08/09 01:50:48;;;;;;;2.40;1.60;;;19.70;59.30;;;;;;4957734;28;20129;-77
2022/08/09 01:53:15;;;;;;;2.88;1.50;;;19.70;59.90;;;;;;4941048;28;20308;-78
2022/08/09 01:55:41;;;;;;;2.42;1.63;;;19.70;59.50;;;;;;4946066;28;20073;-78
2022/08/09 01:58:08;;;;;;;2.20;1.60;;;19.60;59.60;;;;;;4959793;28;20523;-78
2022/08/09 02:00:34;;;;;;;2.60;1.50;;;19.70;59.90;;;;;;4948375;28;20038;-78
2022/08/09 02:03:01;;;;;;;2.53;1.55;;;19.70;59.90;;;;;;4958468;28;20030;-78
2022/08/09 02:05:30;;;;;;;3.05;1.75;;;19.60;60.00;;;;;;4954267;28;20917;-77
2022/08/09 02:08:03;;;;;;;2.88;1.80;;;19.60;60.30;;;;;;4956701;28;20519;-78
2022/08/09 02:10:31;;;;;;;2.15;1.55;;;19.60;61.00;;;;;;4938308;28;20042;-78
2022/08/09 02:13:05;;;;;;;2.00;1.40;;;19.50;60.30;;;;;;4954436;28;20069;-78
2022/08/09 02:15:34;;;;;;;2.05;1.40;;;19.50;61.90;;;;;;4936514;28;20225;-78
2022/08/09 02:18:01;;;;;;;1.80;1.50;;;19.50;60.60;;;;;;4956948;28;20578;-79
2022/08/09 02:20:27;;;;;;;3.17;1.60;;;19.40;60.30;;;;;;4966565;28;20020;-78
2022/08/09 02:23:13;;;;;;;4.60;1.60;;;19.40;60.40;;;;;;4951762;28;20537;-78
2022/08/09 02:25:41;;;;;;;2.33;1.27;;;19.40;61.30;;;;;;4948028;28;20039;-78
2022/08/09 02:28:17;;;;;;;2.00;1.42;;;19.30;60.80;;;;;;4940989;28;20516;-79
2022/08/09 02:30:48;;;;;;;2.00;1.60;;;19.30;62.20;;;;;;4932000;28;20027;-78
2022/08/09 02:33:19;;;;;;;4.07;1.50;;;19.30;61.40;;;;;;4976389;28;20371;-79
2022/08/09 02:35:46;;;;;;;1.85;1.58;;;19.30;61.50;;;;;;4964542;28;20495;-79
2022/08/09 02:38:16;;;;;;;2.97;1.50;;;19.20;61.10;;;;;;4949014;28;20552;-79
2022/08/09 02:40:43;;;;;;;2.67;1.60;;;19.20;61.30;;;;;;4946199;28;20423;-79
2022/08/09 02:43:10;;;;;;;2.53;1.52;;;19.20;61.10;;;;;;4958270;28;20488;-79
2022/08/09 02:45:40;;;;;;;2.25;1.50;;;19.10;62.00;;;;;;4952457;28;20656;-79
2022/08/09 02:48:10;;;;;;;2.55;1.52;;;19.10;61.60;;;;;;4950647;28;20031;-78
2022/08/09 02:50:42;;;;;;;3.00;1.53;;;19.10;61.70;;;;;;4960901;28;20070;-79
2022/08/09 02:53:15;;;;;;;2.15;1.40;;;19.10;61.80;;;;;;4965232;28;20518;-79
2022/08/09 02:55:46;;;;;;;1.90;1.33;;;19.00;61.70;;;;;;4933994;28;20184;-79
2022/08/09 02:58:14;;;;;;;2.03;1.60;;;19.00;61.80;;;;;;4943174;28;20407;-79
2022/08/09 03:00:41;;;;;;;2.15;1.63;;;19.00;61.70;;;;;;4961751;28;20649;-78
2022/08/09 03:03:07;;;;;;;2.37;1.53;;;18.90;61.60;;;;;;4933248;28;20833;-78
2022/08/09 03:05:34;;;;;;;2.13;1.42;;;18.90;61.70;;;;;;4969306;28;20144;-78
2022/08/09 03:08:03;;;;;;;1.90;1.70;;;18.90;61.70;;;;;;4949392;28;20050;-79
2022/08/09 03:10:30;;;;;;;2.15;1.50;;;18.90;62.00;;;;;;4929058;28;20038;-79
2022/08/09 03:12:57;;;;;;;3.50;1.60;;;18.80;62.00;;;;;;4960171;28;20027;-79
2022/08/09 03:15:24;;;;;;;2.80;1.60;;;18.80;62.20;;;;;;4939334;28;20042;-79
2022/08/09 03:17:51;;;;;;;2.22;1.55;;;18.70;63.10;;;;;;4953144;28;20035;-78
2022/08/09 03:20:18;;;;;;;2.10;1.63;;;18.70;62.30;;;;;;4956697;28;20025;-79
2022/08/09 03:22:46;;;;;;;2.65;1.60;;;18.70;62.30;;;;;;4975561;28;20023;-78
2022/08/09 03:25:13;;;;;;;2.08;1.60;;;18.70;62.40;;;;;;4937118;28;20271;-78
2022/08/09 03:27:45;;;;;;;2.00;1.60;;;18.60;62.40;;;;;;4959901;28;20067;-78
2022/08/09 03:30:13;;;;;;;2.30;1.60;;;18.60;62.60;;;;;;4966861;28;20227;-78
2022/08/09 03:32:40;;;;;;;1.88;1.50;;;18.60;62.90;;;;;;4960470;28;20030;-78
2022/08/09 03:35:10;;;;;;;2.80;1.70;;;18.60;62.70;;;;;;4952450;28;20233;-78
2022/08/09 03:37:39;;;;;;;2.80;1.67;;;18.60;62.90;;;;;;4958020;28;20027;-79
2022/08/09 03:40:07;;;;;;;2.23;1.70;;;18.50;62.90;;;;;;4929571;28;20035;-78
2022/08/09 03:42:33;;;;;;;3.38;1.73;;;18.50;63.10;;;;;;4936243;28;20035;-79
2022/08/09 03:44:59;;;;;;;2.10;1.70;;;18.50;63.20;;;;;;4945749;28;20320;-78
2022/08/09 03:47:25;;;;;;;3.28;1.65;;;18.50;63.20;;;;;;4956808;28;20045;-79
2022/08/09 03:49:51;;;;;;;3.17;1.50;;;18.50;63.20;;;;;;4936370;28;20019;-78
2022/08/09 03:52:20;;;;;;;2.42;1.90;;;18.40;63.30;;;;;;4963969;28;20058;-81
2022/08/09 03:54:48;;;;;;;3.00;2.00;;;18.40;63.50;;;;;;4959266;28;20043;-81
2022/08/09 03:57:14;;;;;;;2.15;1.70;;;18.40;63.60;;;;;;4934671;28;20390;-79
2022/08/09 03:59:41;;;;;;;2.58;1.90;;;18.40;63.50;;;;;;4967105;28;20026;-79
2022/08/09 04:02:07;;;;;;;2.77;1.80;;;18.30;63.60;;;;;;4938262;28;20390;-79
2022/08/09 04:04:34;;;;;;;2.72;1.70;;;18.30;63.70;;;;;;4963282;28;20073;-79
2022/08/09 04:07:00;;;;;;;3.60;1.85;;;18.30;63.70;;;;;;4966929;28;20026;-78
2022/08/09 04:09:27;;;;;;;3.15;1.85;;;18.20;63.70;;;;;;4965002;28;20031;-79
2022/08/09 04:12:07;;;;;;;3.15;2.13;;;18.20;63.80;;;;;;4938806;28;20035;-79
2022/08/09 04:14:33;;;;;;;3.43;2.00;;;18.20;64.80;;;;;;4957734;28;20391;-79
2022/08/09 04:16:59;;;;;;;3.20;2.10;;;18.20;63.90;;;;;;4943131;28;22277;-78
2022/08/09 04:19:25;;;;;;;3.03;1.98;;;18.10;63.90;;;;;;4955712;28;20515;-79
2022/08/09 04:21:51;;;;;;;2.67;2.00;;;18.10;63.90;;;;;;4951411;28;20161;-78
2022/08/09 04:24:17;;;;;;;3.40;1.73;;;18.10;64.00;;;;;;4967469;28;20072;-81
2022/08/09 04:26:43;;;;;;;2.78;2.10;;;18.00;64.00;;;;;;4951705;28;20647;-81
2022/08/09 04:29:09;;;;;;;3.20;2.10;;;18.00;64.00;;;;;;4938717;28;20229;-81
2022/08/09 04:31:35;;;;;;;2.30;1.87;;;18.00;64.10;;;;;;4938843;28;20387;-80
2022/08/09 04:34:00;;;;;;;2.88;2.10;;;18.00;64.20;;;;;;4941343;28;20144;-80
2022/08/09 04:36:28;;;;;;;2.90;1.87;;;18.00;64.20;;;;;;4958114;28;20035;-80
2022/08/09 04:38:57;;;;;;;3.38;1.95;;;17.90;64.40;;;;;;4923251;28;20086;-81
2022/08/09 04:41:23;;;;;;;3.15;2.10;;;17.90;64.40;;;;;;4957728;28;20050;-81
2022/08/09 04:43:49;;;;;;;2.92;1.95;;;17.90;64.40;;;;;;4933008;28;20030;-80
2022/08/09 04:46:15;;;;;;;3.15;2.05;;;17.90;64.50;;;;;;4960083;28;20037;-80
2022/08/09 04:48:41;;;;;;;3.97;2.00;;;17.90;64.50;;;;;;4949866;28;20031;-79
2022/08/09 04:51:06;;;;;;;3.37;2.03;;;17.80;64.70;;;;;;4976928;28;20026;-81
2022/08/09 04:53:32;;;;;;;4.13;1.83;;;17.90;64.80;;;;;;4949578;28;20026;-80
2022/08/09 04:55:59;;;;;;;3.10;2.00;;;17.90;64.90;;;;;;4955442;28;20227;-81
2022/08/09 04:58:26;;;;;;;2.63;1.80;;;17.90;65.00;;;;;;4955610;28;20086;-80
2022/08/09 05:00:52;;;;;;;3.22;2.00;;;17.90;65.20;;;;;;4924680;28;20015;-81
2022/08/09 05:03:18;;;;;;;3.92;2.20;;;17.90;65.20;;;;;;4928861;28;20039;-81
2022/08/09 05:05:43;;;;;;;4.30;2.20;;;17.80;65.20;;;;;;4948852;28;20037;-80
2022/08/09 05:08:09;;;;;;;3.30;1.92;;;17.90;65.40;;;;;;4949697;28;20031;-80
2022/08/09 05:10:35;;;;;;;3.53;2.00;;;17.80;65.40;;;;;;4940803;28;20758;-80
2022/08/09 05:13:00;;;;;;;3.47;1.97;;;17.90;65.50;;;;;;4958228;28;20302;-81
2022/08/09 05:15:27;;;;;;;2.67;1.97;;;17.90;65.70;;;;;;4935121;28;20488;-81
2022/08/09 05:17:52;;;;;;;3.40;2.00;;;17.90;65.80;;;;;;4947556;28;20314;-78
2022/08/09 05:20:18;;;;;;;4.43;1.95;;;17.90;65.90;;;;;;4932352;28;20496;-78
2022/08/09 05:22:44;;;;;;;4.07;2.10;;;17.90;66.10;;;;;;4937779;28;20039;-78
2022/08/09 05:25:10;;;;;;;3.90;2.28;;;17.90;66.20;;;;;;4940178;28;20578;-78
2022/08/09 05:27:35;;;;;;;2.70;1.97;;;17.90;66.30;;;;;;4962986;28;20205;-78
2022/08/09 05:30:02;;;;;;;2.73;1.83;;;18.00;66.40;;;;;;4959677;28;20770;-78
2022/08/09 05:32:27;;;;;;;2.63;1.90;;;18.00;66.40;;;;;;4934212;28;20027;-79
2022/08/09 05:34:53;;;;;;;3.10;2.13;;;18.10;66.70;;;;;;4961702;28;20033;-79
2022/08/09 05:37:19;;;;;;;3.00;2.10;;;18.10;66.70;;;;;;4945531;28;20074;-78
2022/08/09 05:39:44;;;;;;;3.87;2.03;;;18.10;66.70;;;;;;4950442;28;20035;-78
2022/08/09 05:42:14;;;;;;;2.95;1.80;;;18.10;66.80;;;;;;4938842;28;20093;-79
2022/08/09 05:44:40;;;;;;;4.38;1.85;;;18.20;67.40;;;;;;4956158;28;20224;-78
2022/08/09 05:47:05;;;;;;;4.30;2.03;;;18.20;66.90;;;;;;4930230;28;20491;-79
2022/08/09 05:49:32;;;;;;;3.40;1.98;;;18.20;67.00;;;;;;4942915;28;20126;-79
2022/08/09 05:51:58;;;;;;;3.00;1.80;;;18.20;67.10;;;;;;4967153;28;20041;-80
2022/08/09 05:54:23;;;;;;;3.73;2.20;;;18.20;67.10;;;;;;4959234;28;20030;-80
2022/08/09 05:56:49;;;;;;;3.83;2.30;;;18.30;67.30;;;;;;4929086;28;20022;-80
2022/08/09 05:59:15;;;;;;;3.33;2.00;;;18.40;67.30;;;;;;4959055;28;20046;-80
2022/08/09 06:01:41;;;;;;;3.07;2.20;;;18.40;67.30;;;;;;4922718;28;20056;-79
2022/08/09 06:04:07;;;;;;;4.70;2.17;;;18.40;67.40;;;;;;4960818;28;20023;-80
2022/08/09 06:06:33;;;;;;;3.10;2.00;;;18.50;67.40;;;;;;4938494;28;20331;-83
2022/08/09 06:08:59;;;;;;;2.95;2.05;;;18.60;67.40;;;;;;4961859;28;20015;-82
2022/08/09 06:11:24;;;;;;;3.53;2.20;;;18.60;67.50;;;;;;4932303;28;20377;-82
2022/08/09 06:13:50;;;;;;;3.67;2.17;;;18.60;67.60;;;;;;4944436;28;20359;-82
2022/08/09 06:16:16;;;;;;;3.50;2.10;;;18.70;67.60;;;;;;4949063;28;20546;-82
2022/08/09 06:18:42;;;;;;;3.50;1.90;;;18.70;67.60;;;;;;4946085;28;20231;-83
2022/08/09 06:21:08;;;;;;;2.92;2.00;;;18.80;67.60;;;;;;4961129;28;20433;-82
2022/08/09 06:23:34;;;;;;;3.37;2.20;;;18.90;67.90;;;;;;4943943;28;20610;-82
2022/08/09 06:26:00;;;;;;;3.38;2.35;;;18.90;67.70;;;;;;4941731;28;20108;-82
2022/08/09 06:28:26;;;;;;;3.40;1.95;;;19.00;67.70;;;;;;4936661;28;20472;-82
2022/08/09 06:30:52;;;;;;;2.70;2.15;;;19.10;67.80;;;;;;4964964;28;20097;-82
2022/08/09 06:33:18;;;;;;;3.63;1.93;;;19.10;67.80;;;;;;4937501;28;20495;-82
2022/08/09 06:35:44;;;;;;;3.38;2.10;;;19.20;67.70;;;;;;4934823;28;20054;-82
2022/08/09 06:38:09;;;;;;;3.67;2.37;;;19.20;67.60;;;;;;4960678;28;20038;-82
2022/08/09 06:40:35;;;;;;;3.63;2.13;;;19.30;67.70;;;;;;4946762;28;20238;-82
2022/08/09 06:43:01;;;;;;;3.05;2.28;;;19.30;67.80;;;;;;4943740;28;20030;-82
2022/08/09 06:45:27;;;;;;;3.27;2.03;;;19.40;67.70;;;;;;4939568;28;20033;-83
2022/08/09 06:47:53;;;;;;;3.00;2.10;;;19.50;68.00;;;;;;4945570;28;20030;-82
2022/08/09 06:50:19;;;;;;;3.40;2.33;;;19.60;68.10;;;;;;4951701;28;20071;-82
2022/08/09 06:52:45;;;;;;;3.53;2.17;;;19.70;68.00;;;;;;4940303;28;20039;-83
2022/08/09 06:55:16;;;;;;;2.97;1.90;;;19.80;68.00;;;;;;4932703;28;20047;-81
2022/08/09 06:57:42;;;;;;;2.63;1.80;;;19.80;68.10;;;;;;4950043;28;20054;-83
2022/08/09 07:00:09;;;;;;;3.45;2.10;;;19.90;67.90;;;;;;4929794;28;20110;-82
2022/08/09 07:02:34;;;;;;;2.73;1.87;;;20.00;67.90;;;;;;4969580;28;20630;-83
2022/08/09 07:05:01;;;;;;;3.28;2.15;;;20.20;67.80;;;;;;4916649;28;20019;-83
2022/08/09 07:07:27;;;;;;;4.25;2.00;;;20.20;67.70;;;;;;4947994;28;20698;-83
2022/08/09 07:09:53;;;;;;;3.13;2.00;;;20.30;67.70;;;;;;4953506;28;20023;-83
2022/08/09 07:12:19;;;;;;;3.38;2.03;;;20.40;67.70;;;;;;4945418;28;20027;-83
2022/08/09 07:14:45;;;;;;;4.22;2.30;;;20.50;67.70;;;;;;4917990;28;20031;-82
2022/08/09 07:17:13;;;;;;;3.95;2.20;;;20.60;67.60;;;;;;4954184;28;20089;-82
2022/08/09 07:19:39;;;;;;;3.27;2.33;;;20.70;67.50;;;;;;4948268;28;20027;-82
2022/08/09 07:22:06;;;;;;;3.90;1.98;;;20.80;67.50;;;;;;4939613;28;20023;-82
2022/08/09 07:24:32;;;;;;;2.97;2.08;;;20.90;67.40;;;;;;4960509;28;20124;-83
2022/08/09 07:26:58;;;;;;;3.75;2.10;;;21.00;67.40;;;;;;4961348;28;20643;-83
2022/08/09 07:29:26;;;;;;;3.00;1.92;;;21.10;67.40;;;;;;4946773;28;20035;-82
2022/08/09 07:31:52;;;;;;;3.73;2.20;;;21.20;67.30;;;;;;4929732;28;20061;-81
2022/08/09 07:34:18;;;;;;;3.88;2.08;;;21.40;67.10;;;;;;4941280;28;20404;-81
2022/08/09 07:36:45;;;;;;;2.85;1.92;;;21.40;66.90;;;;;;4954418;28;20459;-83
2022/08/09 07:39:11;;;;;;;2.70;2.00;;;21.60;67.10;;;;;;4962068;28;20466;-83
2022/08/09 07:41:38;;;;;;;2.97;2.00;;;21.60;66.90;;;;;;4961432;28;20268;-82
2022/08/09 07:44:04;;;;;;;3.13;2.30;;;21.80;66.90;;;;;;4947626;28;20448;-82
2022/08/09 07:46:30;;;;;;;3.10;2.00;;;21.90;66.70;;;;;;4955528;28;20089;-82
2022/08/09 07:48:55;;;;;;;2.83;1.90;;;22.00;66.70;;;;;;4965144;28;20019;-82
2022/08/09 07:51:22;;;;;;;2.78;1.92;;;22.10;66.70;;;;;;4915982;28;20062;-83
2022/08/09 07:53:51;;;;;;;3.00;1.80;;;22.20;66.80;;;;;;4969309;28;20038;-82
2022/08/09 07:56:17;;;;;;;2.80;1.88;;;22.40;66.90;;;;;;4949099;28;20029;-82
2022/08/09 07:58:43;;;;;;;4.77;2.00;;;22.60;67.50;;;;;;4955206;28;20035;-83
2022/08/09 08:01:08;;;;;;;4.07;1.90;;;22.90;68.10;;;;;;4945997;28;20114;-83
2022/08/09 08:03:34;;;;;;;3.40;1.77;;;23.10;68.30;;;;;;4956160;28;20297;-82
2022/08/09 08:06:00;;;;;;;2.80;2.10;;;23.50;67.90;;;;;;4931380;28;20023;-83
2022/08/09 08:08:25;;;;;;;2.90;1.87;;;23.80;66.90;;;;;;4928117;28;20214;-83
2022/08/09 08:10:51;;;;;;;2.33;1.80;;;24.00;66.20;;;;;;4949410;28;20031;-82
2022/08/09 08:13:17;;;;;;;2.30;1.70;;;24.20;65.70;;;;;;4938284;28;20217;-81
2022/08/09 08:15:43;;;;;;;2.43;1.67;;;24.40;65.30;;;;;;4948768;28;20030;-82
2022/08/09 08:18:08;;;;;;;3.58;1.98;;;24.60;65.20;;;;;;4935179;28;20105;-83
2022/08/09 08:20:34;;;;;;;2.93;1.80;;;24.80;65.20;;;;;;4948670;28;20093;-82
2022/08/09 08:23:02;;;;;;;3.33;1.90;;;25.00;65.10;;;;;;4914028;28;20526;-83
2022/08/09 08:25:28;;;;;;;2.25;1.63;;;25.20;64.90;;;;;;4937726;28;20031;-83
2022/08/09 08:27:53;;;;;;;2.80;1.60;;;25.50;65.00;;;;;;4919857;28;20957;-82
2022/08/09 08:30:19;;;;;;;2.23;1.37;;;25.80;65.10;;;;;;4961874;28;20109;-82
2022/08/09 08:32:45;;;;;;;4.32;1.65;;;26.00;64.70;;;;;;4929172;28;20037;-83
2022/08/09 08:35:11;;;;;;;1.60;1.43;;;26.40;64.80;;;;;;4950342;28;20033;-83
2022/08/09 08:37:37;;;;;;;1.50;1.40;;;26.70;65.00;;;;;;4929976;28;20316;-83
2022/08/09 08:40:04;;;;;;;2.45;1.30;;;27.20;65.40;;;;;;4939780;28;20594;-83
2022/08/09 08:42:31;;;;;;;1.85;1.25;;;27.70;65.10;;;;;;4956548;28;20031;-83
2022/08/09 08:44:59;;;;;;;1.85;1.48;;;28.20;64.70;;;;;;4900709;28;20027;-83
2022/08/09 08:47:28;;;;;;;2.07;1.20;;;28.80;64.10;;;;;;4917375;28;22288;-83
2022/08/09 08:49:57;;;;;;;1.73;1.38;;;29.30;61.90;;;;;;4951407;28;20122;-83
2022/08/09 08:52:25;;;;;;;1.83;1.30;;;29.80;61.50;;;;;;4943544;28;22453;-82
2022/08/09 08:54:56;;;;;;;1.65;1.42;;;30.30;59.90;;;;;;4955596;28;20574;-83
2022/08/09 08:57:22;;;;;;;1.45;1.10;;;30.70;59.00;;;;;;4945617;28;20866;-82
2022/08/09 08:59:49;;;;;;;2.17;1.30;;;31.10;58.60;;;;;;4950959;28;20639;-83
2022/08/09 09:02:26;;;;;;;1.85;1.20;;;31.50;57.40;;;;;;4943221;28;20479;-83
2022/08/09 09:04:54;;;;;;;1.90;1.27;;;31.80;54.70;;;;;;4936906;28;20027;-83
2022/08/09 09:07:20;;;;;;;1.25;1.00;;;32.10;55.90;;;;;;4924456;28;20768;-82
2022/08/09 09:09:47;;;;;;;1.48;1.38;;;32.50;55.70;;;;;;4960702;28;20078;-83
2022/08/09 09:12:18;;;;;;;2.53;1.20;;;32.80;54.50;;;;;;4972427;28;20025;-84
2022/08/09 09:14:45;;;;;;;1.77;1.30;;;33.20;53.00;;;;;;4953238;28;20139;-84
2022/08/09 09:17:12;;;;;;;1.88;1.40;;;33.50;52.90;;;;;;4964293;28;20035;-83
2022/08/09 09:19:38;;;;;;;2.40;1.70;;;33.80;52.20;;;;;;4946497;28;20042;-84
2022/08/09 09:22:06;;;;;;;3.53;1.33;;;34.00;51.30;;;;;;4985398;28;20022;-84
2022/08/09 09:24:38;;;;;;;1.77;1.30;;;34.30;50.40;;;;;;4947211;28;20038;-83
2022/08/09 09:27:06;;;;;;;1.80;1.23;;;34.50;49.50;;;;;;4947438;28;20042;-83
2022/08/09 09:29:39;;;;;;;1.40;1.23;;;34.60;47.80;;;;;;4952661;28;20523;-83
2022/08/09 09:32:05;;;;;;;1.73;1.30;;;34.70;47.30;;;;;;4949267;28;20058;-83
2022/08/09 09:34:32;;;;;;;1.93;1.23;;;34.90;47.20;;;;;;4946944;28;20074;-83
2022/08/09 09:36:59;;;;;;;1.70;1.48;;;34.90;46.80;;;;;;4952467;28;20026;-83
2022/08/09 09:39:26;;;;;;;1.67;1.20;;;35.00;46.10;;;;;;4923272;28;20208;-82
2022/08/09 09:41:53;;;;;;;2.25;1.70;;;35.10;45.40;;;;;;4961062;28;20241;-82
2022/08/09 09:44:31;;;;;;;1.50;1.30;;;35.20;45.00;;;;;;4943168;28;20118;-83
2022/08/09 09:47:07;;;;;;;2.17;1.43;;;35.20;44.40;;;;;;4938902;28;20029;-83
2022/08/09 09:49:33;;;;;;;1.50;1.40;;;35.40;44.00;;;;;;4954469;28;20492;-83
2022/08/09 09:52:04;;;;;;;2.75;1.50;;;35.60;45.20;;;;;;4956984;28;20018;-83
2022/08/09 09:54:49;;;;;;;1.98;1.55;;;35.80;44.20;;;;;;4913548;28;20030;-81
2022/08/09 09:57:22;;;;;;;2.10;1.40;;;36.10;43.50;;;;;;4946028;28;20124;-80
2022/08/09 09:59:50;;;;;;;1.30;1.20;;;36.20;42.50;;;;;;4931342;28;20034;-79
2022/08/09 10:02:17;;;;;;;1.65;1.55;;;36.40;42.60;;;;;;4960065;28;20027;-81
2022/08/09 10:04:44;;;;;;;1.70;1.50;;;36.50;42.00;;;;;;4947354;28;20023;-80
2022/08/09 10:07:21;;;;;;;1.77;1.50;;;36.60;41.30;;;;;;4942398;28;20093;-80
2022/08/09 10:09:50;;;;;;;1.50;1.40;;;36.70;40.20;;;;;;4929080;28;20035;-79
2022/08/09 10:12:29;;;;;;;2.47;1.60;;;36.80;39.80;;;;;;4952852;28;20026;-80
2022/08/09 10:15:06;;;;;;;1.63;1.52;;;36.80;39.60;;;;;;4958386;28;20384;-81
2022/08/09 10:17:35;;;;;;;1.60;1.50;;;36.80;38.90;;;;;;4941766;28;20662;-79
2022/08/09 10:20:24;;;;;;;1.90;1.70;;;36.80;39.10;;;;;;4962746;28;20062;-80
2022/08/09 10:22:53;;;;;;;1.60;1.50;;;36.90;38.20;;;;;;4948866;28;20038;-80
2022/08/09 10:25:19;;;;;;;2.47;1.30;;;37.00;39.30;;;;;;4953053;28;20030;-81
2022/08/09 10:27:45;;;;;;;1.77;1.67;;;37.10;39.50;;;;;;4935274;28;20044;-80
2022/08/09 10:30:13;;;;;;;1.90;1.30;;;37.30;39.10;;;;;;4952117;28;20030;-81
2022/08/09 10:32:39;;;;;;;2.22;1.90;;;37.30;38.90;;;;;;4948925;28;20504;-80
2022/08/09 10:35:07;;;;;;;2.60;1.40;;;37.50;39.30;;;;;;4943955;28;20578;-80
2022/08/09 10:37:33;;;;;;;1.80;1.70;;;37.70;38.00;;;;;;4930761;28;20786;-80
2022/08/09 10:40:00;;;;;;;2.00;1.85;;;37.80;37.70;;;;;;4959440;28;20053;-80
2022/08/09 10:42:26;;;;;;;2.00;1.80;;;37.90;37.30;;;;;;4931236;28;20030;-80
2022/08/09 10:45:08;;;;;;;2.20;2.00;;;38.10;37.30;;;;;;4955668;28;20027;-80
2022/08/09 10:47:43;;;;;;;1.88;1.67;;;38.20;35.50;;;;;;4957247;28;20181;-81
2022/08/09 10:51:05;;;;;;;1.88;1.58;;;38.20;36.20;;;;;;4953506;28;20033;-80
2022/08/09 10:53:35;;;;;;;1.90;1.80;;;38.40;35.50;;;;;;4945417;28;20105;-80
2022/08/09 10:56:22;;;;;;;2.07;1.60;;;38.50;34.20;;;;;;4963260;28;20041;-80
2022/08/09 10:58:50;;;;;;;1.80;1.70;;;38.60;35.00;;;;;;4938024;28;20082;-80
2022/08/09 11:01:31;;;;;;;2.15;1.70;;;38.70;35.50;;;;;;4973309;28;20542;-80
2022/08/09 11:04:09;;;;;;;1.73;1.63;;;38.80;33.80;;;;;;4943329;28;20386;-80
2022/08/09 11:06:37;;;;;;;1.65;1.55;;;38.90;33.70;;;;;;4959860;28;20118;-80
2022/08/09 11:09:04;;;;;;;1.83;1.50;;;38.90;34.60;;;;;;4935550;28;20105;-80
2022/08/09 11:11:58;;;;;;;5.88;1.80;;;38.90;34.30;;;;;;4949321;28;20587;-79
2022/08/09 11:14:50;;;;;;;2.10;1.80;;;39.10;33.50;;;;;;4948259;28;20367;-81
2022/08/09 11:17:15;;;;;;;2.03;1.92;;;39.20;33.10;;;;;;4947691;28;20682;-80
2022/08/09 11:19:57;;;;;;;2.03;1.83;;;39.30;34.30;;;;;;4951889;28;20038;-79
2022/08/09 11:22:44;;;;;;;2.30;1.60;;;39.50;32.20;;;;;;4920640;28;20204;-80
2022/08/09 11:25:17;;;;;;;1.77;1.65;;;39.60;32.70;;;;;;4944640;28;20054;-80
2022/08/09 11:27:48;;;;;;;6.13;2.22;;;39.70;33.00;;;;;;4963346;28;20502;-80
2022/08/09 11:30:31;;;;;;;1.92;1.58;;;39.70;32.10;;;;;;4912533;28;20264;-80
2022/08/09 11:33:02;;;;;;;1.90;1.80;;;39.70;31.50;;;;;;4960397;28;20019;-80
2022/08/09 11:35:46;;;;;;;2.17;1.67;;;39.70;32.60;;;;;;4967616;28;20402;-79
2022/08/09 11:38:24;;;;;;;1.58;1.48;;;39.90;32.00;;;;;;4970443;28;20145;-81
2022/08/09 11:40:50;;;;;;;2.20;2.00;;;39.90;31.30;;;;;;4943855;28;20030;-80
2022/08/09 11:43:37;;;;;;;2.22;2.03;;;39.90;31.90;;;;;;4961571;28;20240;-80
2022/08/09 11:46:04;;;;;;;2.03;1.30;;;40.00;32.20;;;;;;4932288;28;20050;-79
2022/08/09 11:48:33;;;;;;;1.90;1.80;;;40.00;31.50;;;;;;4956098;28;20291;-80
2022/08/09 11:51:00;;;;;;;2.20;2.10;;;40.10;31.40;;;;;;4941527;28;20030;-80
2022/08/09 11:53:27;;;;;;;2.63;2.10;;;40.20;31.20;;;;;;4964700;28;20186;-80
2022/08/09 11:55:55;;;;;;;3.22;1.60;;;40.30;30.80;;;;;;4926756;28;20027;-79
2022/08/09 11:58:22;;;;;;;3.53;2.20;;;40.30;30.60;;;;;;4954271;28;20491;-81
2022/08/09 12:00:50;;;;;;;1.65;1.55;;;40.30;30.60;;;;;;4955419;28;20317;-79
2022/08/09 12:03:22;;;;;;;3.63;1.80;;;40.40;30.90;;;;;;4943410;28;20045;-80
2022/08/09 12:05:49;;;;;;;2.00;1.90;;;40.50;30.00;;;;;;4940577;28;20069;-80
2022/08/09 12:08:17;;;;;;;1.83;1.73;;;40.50;30.30;;;;;;4935577;28;20334;-79
2022/08/09 12:10:48;;;;;;;1.90;1.80;;;40.60;30.30;;;;;;4938625;28;20031;-79
2022/08/09 12:13:33;;;;;;;2.22;1.55;;;40.70;30.00;;;;;;4922897;28;20038;-80
2022/08/09 12:16:01;;;;;;;3.80;1.55;;;40.70;29.20;;;;;;4962058;28;20279;-80
2022/08/09 12:18:26;;;;;;;2.55;2.00;;;40.70;29.90;;;;;;4923142;28;20086;-79
2022/08/09 12:20:52;;;;;;;2.03;1.60;;;40.90;29.90;;;;;;4946707;28;20195;-80
2022/08/09 12:23:18;;;;;;;2.20;1.90;;;40.90;29.60;;;;;;4949943;28;20027;-81
2022/08/09 12:25:52;;;;;;;1.88;1.60;;;40.90;29.60;;;;;;4966339;28;20118;-80
2022/08/09 12:28:20;;;;;;;2.08;1.98;;;41.00;29.20;;;;;;4947922;28;20037;-80
2022/08/09 12:30:47;;;;;;;1.75;1.65;;;41.10;29.30;;;;;;4934304;28;20089;-79
2022/08/09 12:33:14;;;;;;;2.27;2.00;;;41.10;29.30;;;;;;4962396;28;20073;-79
2022/08/09 12:35:40;;;;;;;2.45;2.25;;;41.10;29.20;;;;;;4940638;28;20022;-80
2022/08/09 12:38:21;;;;;;;2.03;1.85;;;41.10;28.90;;;;;;4960608;28;20030;-80
2022/08/09 12:40:49;;;;;;;1.80;1.67;;;41.10;27.90;;;;;;4940592;28;20050;-79
2022/08/09 12:43:19;;;;;;;3.45;1.92;;;41.00;29.00;;;;;;4940906;28;20015;-79
2022/08/09 12:45:46;;;;;;;2.73;2.10;;;41.00;28.80;;;;;;4960066;28;20026;-80
2022/08/09 12:48:13;;;;;;;1.67;1.58;;;40.90;28.60;;;;;;4938935;28;20454;-80
2022/08/09 12:50:39;;;;;;;2.00;1.85;;;40.90;28.60;;;;;;4929458;28;23026;-80
2022/08/09 12:53:22;;;;;;;1.85;1.75;;;40.90;28.50;;;;;;4965984;28;20651;-80
2022/08/09 12:55:48;;;;;;;1.98;1.80;;;40.80;28.60;;;;;;4940987;28;20031;-79